createdAt,value
2019-05-03T00:01:02.385Z,98.7350
2019-05-03T00:02:04.291Z,98.8739
2019-05-03T00:03:07.316Z,98.9685
2019-05-03T00:04:11.936Z,99.0158
2019-05-03T00:05:15.281Z,99.0143
2019-05-03T00:06:18.325Z,99.1211
2019-05-03T00:07:22.323Z,99.1470
2019-05-03T00:08:24.310Z,99.0875
2019-05-03T00:09:27.284Z,99.1882
2019-05-03T00:10:31.790Z,99.2264
2019-05-03T00:11:35.292Z,99.2477
2019-05-03T00:12:37.345Z,99.0295
2019-05-03T00:13:41.912Z,99.1470
2019-05-03T00:14:45.299Z,99.1653
2019-05-03T00:15:48.271Z,99.1348
2019-05-03T00:16:52.230Z,99.1485
2019-05-03T00:17:55.367Z,99.1760
2019-05-03T00:19:00.953Z,98.9837
2019-05-03T00:20:04.278Z,98.7259
2019-05-03T00:21:07.287Z,98.9105
2019-05-03T00:22:12.202Z,99.0341
2019-05-03T00:23:15.316Z,99.0021
2019-05-03T00:24:18.291Z,98.8647
2019-05-03T00:25:22.125Z,98.8861
2019-05-03T00:26:24.296Z,98.9410
2019-05-03T00:27:27.302Z,98.7320
2019-05-03T00:28:32.071Z,98.8540
2019-05-03T00:29:35.283Z,99.0967
2019-05-03T00:30:38.296Z,99.1241
2019-05-03T00:31:42.322Z,99.0524
2019-05-03T00:32:45.269Z,98.9960
2019-05-03T00:33:48.337Z,99.1073
2019-05-03T00:34:52.386Z,99.0143
2019-05-03T00:35:55.286Z,98.7091
2019-05-03T00:36:58.263Z,98.5382
2019-05-03T00:38:02.104Z,98.6450
2019-05-03T00:39:07.319Z,98.6160
2019-05-03T00:40:12.138Z,98.7366
2019-05-03T00:41:14.280Z,98.6725
2019-05-03T00:42:16.619Z,98.7213
2019-05-03T00:43:19.301Z,98.6664
2019-05-03T00:44:22.303Z,98.7808
2019-05-03T00:45:25.256Z,98.8510
2019-05-03T00:46:28.301Z,98.4787
2019-05-03T00:47:32.853Z,98.4802
2019-05-03T00:48:36.290Z,98.4970
2019-05-03T00:49:39.342Z,98.7549
2019-05-03T00:50:42.595Z,98.4787
2019-05-03T00:51:45.305Z,98.6450
2019-05-03T00:52:48.283Z,98.6450
2019-05-03T00:53:53.071Z,98.6816
2019-05-03T00:54:56.339Z,98.6343
2019-05-03T00:55:59.295Z,98.2452
2019-05-03T00:57:02.704Z,98.6542
2019-05-03T00:58:06.297Z,98.7030
2019-05-03T00:59:09.340Z,98.6664
2019-05-03T01:00:12.411Z,98.6068
2019-05-03T01:01:15.308Z,98.6587
2019-05-03T01:02:18.292Z,98.5580
2019-05-03T01:03:21.929Z,98.5809
2019-05-03T01:04:25.298Z,98.3749
2019-05-03T01:05:28.296Z,98.7488
2019-05-03T01:06:31.818Z,98.6221
2019-05-03T01:07:35.270Z,98.6755
2019-05-03T01:08:38.313Z,98.6755
2019-05-03T01:09:42.391Z,98.6358
2019-05-03T01:10:45.350Z,98.4237
2019-05-03T01:11:48.275Z,98.5473
2019-05-03T01:12:52.297Z,98.2635
2019-05-03T01:13:55.293Z,98.3200
2019-05-03T01:14:58.311Z,98.2132
2019-05-03T01:16:02.750Z,98.2452
2019-05-03T01:17:06.276Z,98.5107
2019-05-03T01:18:09.306Z,98.5763
2019-05-03T01:19:12.280Z,98.6481
2019-05-03T01:20:15.320Z,98.5718
2019-05-03T01:21:18.325Z,98.7121
2019-05-03T01:22:22.679Z,98.7594
2019-05-03T01:23:25.262Z,98.8418
2019-05-03T01:24:28.299Z,98.7732
2019-05-03T01:25:35.137Z,98.6816
2019-05-03T01:26:38.317Z,98.6130
2019-05-03T01:27:42.759Z,98.7274
2019-05-03T01:28:46.275Z,98.8174
2019-05-03T01:29:49.299Z,98.9502
2019-05-03T01:30:52.292Z,98.9273
2019-05-03T01:31:55.336Z,98.9319
2019-05-03T01:32:58.280Z,98.8922
2019-05-03T01:34:02.362Z,98.6816
2019-05-03T01:35:05.300Z,98.7411
2019-05-03T01:36:08.304Z,98.5153
2019-05-03T01:37:11.955Z,98.5168
2019-05-03T01:38:15.275Z,98.2773
2019-05-03T01:39:18.392Z,98.2559
2019-05-03T01:40:22.045Z,97.6638
2019-05-03T01:41:25.321Z,97.3037
2019-05-03T01:42:28.310Z,97.6593
2019-05-03T01:43:31.728Z,97.4823
2019-05-03T01:44:35.296Z,97.6089
2019-05-03T01:45:38.273Z,97.7691
2019-05-03T01:46:42.180Z,97.1374
2019-05-03T01:47:45.299Z,97.3999
2019-05-03T01:48:48.295Z,97.1481
2019-05-03T01:49:51.957Z,97.3587
2019-05-03T01:50:55.295Z,97.2427
2019-05-03T01:51:58.274Z,97.3068
2019-05-03T01:53:01.944Z,97.3495
2019-05-03T01:54:05.308Z,97.1099
2019-05-03T01:55:08.272Z,96.9223
2019-05-03T01:56:11.831Z,96.7208
2019-05-03T01:57:15.284Z,97.1252
2019-05-03T01:58:18.359Z,97.0550
2019-05-03T01:59:22.695Z,96.8505
2019-05-03T02:00:25.319Z,97.1145
2019-05-03T02:01:28.270Z,97.2122
2019-05-03T02:02:32.400Z,97.3571
2019-05-03T02:03:35.308Z,97.4456
2019-05-03T02:04:38.284Z,97.7325
2019-05-03T02:05:40.296Z,97.5494
2019-05-03T02:06:43.277Z,97.5738
2019-05-03T02:07:48.537Z,97.5677
2019-05-03T02:08:52.194Z,97.2946
2019-05-03T02:09:55.296Z,97.6287
2019-05-03T02:10:58.274Z,97.0459
2019-05-03T02:12:02.159Z,97.0886
2019-05-03T02:13:05.266Z,97.2580
2019-05-03T02:14:08.286Z,96.5240
2019-05-03T02:15:11.816Z,96.8780
2019-05-03T02:16:15.288Z,96.0403
2019-05-03T02:17:18.312Z,96.4431
2019-05-03T02:18:22.339Z,96.4294
2019-05-03T02:19:25.329Z,96.3333
2019-05-03T02:20:28.286Z,95.4849
2019-05-03T02:21:32.227Z,95.3567
2019-05-03T02:22:35.287Z,95.9106
2019-05-03T02:23:37.269Z,96.5698
2019-05-03T02:24:42.158Z,96.3226
2019-05-03T02:25:55.527Z,97.2534
2019-05-03T02:26:53.283Z,97.5463
2019-05-03T02:27:56.279Z,97.6867
2019-05-03T02:28:59.332Z,98.1170
2019-05-03T02:30:03.077Z,98.4939
2019-05-03T02:31:06.294Z,98.4787
2019-05-03T02:32:09.271Z,98.3185
2019-05-03T02:33:13.472Z,98.1720
2019-05-03T02:34:15.330Z,97.9889
2019-05-03T02:35:18.323Z,98.1460
2019-05-03T02:36:23.174Z,97.5311
2019-05-03T02:37:26.260Z,97.2015
2019-05-03T02:38:29.280Z,97.3297
2019-05-03T02:39:33.510Z,97.1481
2019-05-03T02:40:36.299Z,96.8536
2019-05-03T02:41:39.285Z,97.0504
2019-05-03T02:42:42.307Z,97.2946
2019-05-03T02:43:45.492Z,97.1618
2019-05-03T02:44:48.345Z,97.2152
2019-05-03T02:45:51.294Z,97.4212
2019-05-03T02:46:56.262Z,97.7050
2019-05-03T02:47:59.294Z,97.2564
2019-05-03T02:49:06.174Z,97.4990
2019-05-03T02:50:09.330Z,97.4166
2019-05-03T02:51:12.294Z,97.7340
2019-05-03T02:52:15.308Z,97.9538
2019-05-03T02:53:17.296Z,98.0499
2019-05-03T02:54:20.286Z,97.6593
2019-05-03T02:55:25.780Z,97.9156
2019-05-03T02:56:28.324Z,98.0774
2019-05-03T02:57:31.313Z,97.9995
2019-05-03T02:58:35.799Z,98.2177
2019-05-03T02:59:39.316Z,97.8347
2019-05-03T03:00:45.336Z,98.2544
2019-05-03T03:01:48.339Z,98.5611
2019-05-03T03:02:51.297Z,98.4482
2019-05-03T03:03:56.000Z,98.4390
2019-05-03T03:04:59.295Z,98.3703
2019-05-03T03:06:02.291Z,98.0438
2019-05-03T03:07:05.852Z,98.2101
2019-05-03T03:08:09.259Z,98.4237
2019-05-03T03:09:12.316Z,98.5351
2019-05-03T03:10:16.154Z,98.7778
2019-05-03T03:11:19.334Z,99.0005
2019-05-03T03:12:22.285Z,98.9014
2019-05-03T03:13:25.529Z,98.9700
2019-05-03T03:14:28.295Z,98.7533
2019-05-03T03:15:31.305Z,98.4985
2019-05-03T03:16:36.156Z,98.7228
2019-05-03T03:17:39.282Z,98.7625
2019-05-03T03:18:45.374Z,98.8312
2019-05-03T03:19:48.267Z,98.6908
2019-05-03T03:20:51.298Z,98.8220
2019-05-03T03:21:56.266Z,98.3063
2019-05-03T03:22:59.281Z,98.2605
2019-05-03T03:24:02.289Z,97.6684
2019-05-03T03:25:05.507Z,97.9248
2019-05-03T03:26:08.274Z,98.0529
2019-05-03T03:27:11.342Z,98.0667
2019-05-03T03:28:15.837Z,98.2086
2019-05-03T03:29:19.306Z,98.2651
2019-05-03T03:30:22.316Z,98.1781
2019-05-03T03:31:28.021Z,98.5397
2019-05-03T03:32:32.352Z,98.2651
2019-05-03T03:33:40.141Z,98.5122
2019-05-03T03:34:54.368Z,97.8531
2019-05-03T03:35:51.283Z,97.9294
2019-05-03T03:37:00.855Z,98.0819
2019-05-03T03:38:02.325Z,97.9706
2019-05-03T03:39:06.031Z,97.5769
2019-05-03T03:40:09.347Z,97.5647
2019-05-03T03:41:12.278Z,97.3175
2019-05-03T03:42:16.173Z,97.0062
2019-05-03T03:43:19.310Z,96.8261
2019-05-03T03:44:21.271Z,97.0016
2019-05-03T03:45:25.398Z,97.3617
2019-05-03T03:46:31.864Z,96.6018
2019-05-03T03:47:35.813Z,97.2671
2019-05-03T03:48:39.315Z,97.2442
2019-05-03T03:49:42.288Z,96.8963
2019-05-03T03:50:45.693Z,97.3907
2019-05-03T03:51:49.299Z,97.4136
2019-05-03T03:52:52.259Z,97.4395
2019-05-03T03:53:55.676Z,97.3037
2019-05-03T03:54:59.327Z,97.3846
2019-05-03T03:56:02.280Z,97.7249
2019-05-03T03:57:08.062Z,97.7249
2019-05-03T03:58:11.297Z,97.3816
2019-05-03T03:59:15.393Z,96.8734
2019-05-03T04:00:18.345Z,97.4594
2019-05-03T04:01:21.279Z,97.4090
2019-05-03T04:02:26.439Z,96.9100
2019-05-03T04:03:29.256Z,97.3022
2019-05-03T04:04:32.345Z,96.7941
2019-05-03T04:05:35.763Z,96.4065
2019-05-03T04:06:38.302Z,96.9650
2019-05-03T04:07:41.251Z,96.7819
2019-05-03T04:08:45.311Z,97.0504
2019-05-03T04:09:48.344Z,97.2793
2019-05-03T04:10:51.300Z,97.4899
2019-05-03T04:11:56.615Z,97.1527
2019-05-03T04:13:00.285Z,97.3907
2019-05-03T04:14:05.403Z,97.6822
2019-05-03T04:15:08.328Z,97.5830
2019-05-03T04:16:11.272Z,97.6974
2019-05-03T04:17:15.117Z,97.7279
2019-05-03T04:18:18.297Z,98.1308
2019-05-03T04:19:21.337Z,98.2055
2019-05-03T04:20:25.751Z,98.1414
2019-05-03T04:21:29.325Z,98.4833
2019-05-03T04:22:32.324Z,98.5016
2019-05-03T04:23:35.834Z,98.5626
2019-05-03T04:24:39.264Z,98.6618
2019-05-03T04:25:41.316Z,98.7213
2019-05-03T04:26:45.358Z,98.6038
2019-05-03T04:27:48.298Z,98.6023
2019-05-03T04:28:51.297Z,98.8998
2019-05-03T04:29:55.576Z,99.0249
2019-05-03T04:30:57.449Z,98.9593
2019-05-03T04:32:00.324Z,98.7213
2019-05-03T04:33:05.992Z,98.7488
2019-05-03T04:34:09.282Z,98.8968
2019-05-03T04:35:12.345Z,98.9731
2019-05-03T04:36:15.939Z,99.1394
2019-05-03T04:37:21.316Z,99.2294
2019-05-03T04:38:25.661Z,99.3179
2019-05-03T04:39:29.306Z,99.2294
2019-05-03T04:40:32.303Z,99.2309
2019-05-03T04:41:35.719Z,99.2401
2019-05-03T04:42:39.275Z,99.2584
2019-05-03T04:43:42.319Z,99.2721
2019-05-03T04:44:45.803Z,99.3210
2019-05-03T04:45:49.279Z,99.3271
2019-05-03T04:46:55.083Z,99.2538
2019-05-03T04:48:00.308Z,99.1928
2019-05-03T04:49:05.521Z,99.2203
2019-05-03T04:50:09.301Z,99.3118
2019-05-03T04:51:12.300Z,98.9700
2019-05-03T04:52:16.486Z,99.2172
2019-05-03T04:53:19.278Z,99.3271
2019-05-03T04:54:25.229Z,99.0478
2019-05-03T04:55:28.343Z,99.0616
2019-05-03T04:56:31.296Z,98.5245
2019-05-03T04:57:40.429Z,98.5031
2019-05-03T04:58:42.278Z,98.7182
2019-05-03T04:59:45.375Z,98.8464
2019-05-03T05:00:48.294Z,98.8174
2019-05-03T05:01:51.305Z,98.2452
2019-05-03T05:02:55.208Z,98.3246
2019-05-03T05:03:58.310Z,98.4527
2019-05-03T05:05:01.320Z,98.5077
2019-05-03T05:06:06.326Z,98.3337
2019-05-03T05:07:09.331Z,98.3337
2019-05-03T05:08:12.325Z,98.1537
2019-05-03T05:09:15.681Z,98.1765
2019-05-03T05:10:18.244Z,98.3642
2019-05-03T05:11:26.098Z,98.6679
2019-05-03T05:12:29.304Z,98.4710
2019-05-03T05:13:32.327Z,98.5122
2019-05-03T05:14:35.548Z,98.2132
2019-05-03T05:15:38.287Z,97.9492
2019-05-03T05:16:41.309Z,98.2101
2019-05-03T05:17:45.933Z,97.9034
2019-05-03T05:18:49.340Z,98.0392
2019-05-03T05:19:52.302Z,97.9767
2019-05-03T05:20:55.558Z,98.0301
2019-05-03T05:21:58.301Z,98.1582
2019-05-03T05:23:01.298Z,98.2330
2019-05-03T05:24:05.585Z,98.2956
2019-05-03T05:25:09.319Z,97.9843
2019-05-03T05:26:14.331Z,98.0636
2019-05-03T05:27:17.292Z,97.9858
2019-05-03T05:28:20.306Z,98.1903
2019-05-03T05:29:25.231Z,98.3108
2019-05-03T05:30:28.303Z,98.4848
2019-05-03T05:31:31.324Z,98.2101
2019-05-03T05:32:34.962Z,98.3597
2019-05-03T05:33:38.302Z,98.6725
2019-05-03T05:34:41.334Z,98.8418
2019-05-03T05:35:44.387Z,98.8144
2019-05-03T05:36:47.302Z,98.6801
2019-05-03T05:37:50.323Z,98.9685
2019-05-03T05:38:55.176Z,98.8144
2019-05-03T05:39:58.314Z,98.5977
2019-05-03T05:41:01.282Z,98.3963
2019-05-03T05:42:04.562Z,98.1994
2019-05-03T05:43:08.302Z,98.2879
2019-05-03T05:44:11.323Z,98.1872
2019-05-03T05:45:15.326Z,97.6410
2019-05-03T05:46:18.324Z,98.0301
2019-05-03T05:47:20.324Z,98.1674
2019-05-03T05:48:24.636Z,98.0911
2019-05-03T05:49:27.371Z,98.4558
2019-05-03T05:50:30.314Z,98.4604
2019-05-03T05:51:35.206Z,98.3749
2019-05-03T05:52:38.260Z,98.4054
2019-05-03T05:53:41.335Z,98.2956
2019-05-03T05:54:45.620Z,98.0453
2019-05-03T05:55:49.292Z,98.3200
2019-05-03T05:56:52.318Z,98.0163
2019-05-03T05:58:03.002Z,98.1262
2019-05-03T05:59:04.483Z,98.0713
2019-05-03T06:00:08.342Z,98.5031
2019-05-03T06:01:11.330Z,98.4329
2019-05-03T06:02:15.063Z,98.3368
2019-05-03T06:03:18.354Z,97.9950
2019-05-03T06:04:21.302Z,97.4044
2019-05-03T06:05:25.227Z,96.9192
2019-05-03T06:06:28.332Z,97.0108
2019-05-03T06:07:31.387Z,96.2234
2019-05-03T06:08:35.434Z,96.2280
2019-05-03T06:09:38.289Z,95.8343
2019-05-03T06:10:41.325Z,95.8251
2019-05-03T06:11:45.038Z,95.7748
2019-05-03T06:12:48.359Z,96.3638
2019-05-03T06:13:51.304Z,95.3155
2019-05-03T06:14:54.498Z,95.4162
2019-05-03T06:15:58.329Z,95.6039
2019-05-03T06:17:01.350Z,95.6771
2019-05-03T06:18:05.755Z,95.4223
2019-05-03T06:19:09.290Z,96.0571
2019-05-03T06:20:12.383Z,96.1852
2019-05-03T06:21:15.322Z,96.2676
2019-05-03T06:22:18.358Z,95.9976
2019-05-03T06:23:21.289Z,95.4589
2019-05-03T06:24:24.939Z,95.2438
2019-05-03T06:25:28.366Z,94.7082
2019-05-03T06:26:31.365Z,95.1705
2019-05-03T06:27:34.702Z,94.9767
2019-05-03T06:28:37.334Z,94.0246
2019-05-03T06:29:40.290Z,95.0271
2019-05-03T06:30:45.315Z,94.6380
2019-05-03T06:31:49.341Z,95.4665
2019-05-03T06:32:52.313Z,95.8465
2019-05-03T06:33:55.420Z,96.4569
2019-05-03T06:34:58.297Z,96.3790
2019-05-03T06:36:01.309Z,96.7590
2019-05-03T06:37:04.559Z,96.4889
2019-05-03T06:38:07.365Z,96.1669
2019-05-03T06:39:10.310Z,96.2097
2019-05-03T06:40:14.953Z,96.1349
2019-05-03T06:41:18.288Z,96.2783
2019-05-03T06:42:22.878Z,96.5072
2019-05-03T06:43:26.310Z,96.7361
2019-05-03T06:44:30.345Z,97.1054
2019-05-03T06:45:35.242Z,97.0703
2019-05-03T06:46:38.329Z,96.7254
2019-05-03T06:47:46.061Z,97.0703
2019-05-03T06:48:49.324Z,97.4121
2019-05-03T06:49:52.325Z,96.9497
2019-05-03T06:50:55.790Z,96.5148
2019-05-03T06:52:00.300Z,96.3775
2019-05-03T06:53:05.817Z,96.4111
2019-05-03T06:54:11.299Z,96.6720
2019-05-03T06:55:14.618Z,96.7544
2019-05-03T06:56:19.220Z,96.6339
2019-05-03T06:57:26.360Z,96.5286
2019-05-03T06:58:33.136Z,96.4782
2019-05-03T06:59:37.321Z,96.6888
2019-05-03T07:00:40.278Z,96.2097
2019-05-03T07:01:42.326Z,95.8419
2019-05-03T07:02:45.333Z,96.2234
2019-05-03T07:03:48.325Z,96.3973
2019-05-03T07:04:51.341Z,96.3424
2019-05-03T07:05:54.889Z,95.7046
2019-05-03T07:06:58.324Z,95.5642
2019-05-03T07:08:01.337Z,95.4452
2019-05-03T07:09:05.345Z,95.6497
2019-05-03T07:10:08.330Z,95.8190
2019-05-03T07:11:11.325Z,95.5673
2019-05-03T07:12:14.887Z,95.1507
2019-05-03T07:13:18.312Z,95.5871
2019-05-03T07:14:21.362Z,96.2142
2019-05-03T07:15:25.139Z,95.6741
2019-05-03T07:16:28.317Z,96.3378
2019-05-03T07:17:31.313Z,96.2905
2019-05-03T07:18:35.157Z,95.5779
2019-05-03T07:19:38.338Z,95.7885
2019-05-03T07:20:41.278Z,95.4864
2019-05-03T07:21:44.712Z,95.2026
2019-05-03T07:22:48.334Z,94.9172
2019-05-03T07:23:51.318Z,94.2504
2019-05-03T07:24:54.617Z,94.3648
2019-05-03T07:25:58.320Z,94.4686
2019-05-03T07:27:02.317Z,94.1863
2019-05-03T07:28:05.308Z,94.2916
2019-05-03T07:29:08.284Z,93.8827
2019-05-03T07:30:11.372Z,94.4228
2019-05-03T07:31:15.071Z,95.0683
2019-05-03T07:32:18.318Z,94.3145
2019-05-03T07:33:21.292Z,94.1588
2019-05-03T07:34:24.743Z,94.2962
2019-05-03T07:35:28.383Z,94.8821
2019-05-03T07:36:35.388Z,94.1527
2019-05-03T07:37:38.357Z,94.4472
2019-05-03T07:38:40.326Z,93.9605
2019-05-03T07:39:45.144Z,94.1161
2019-05-03T07:40:48.313Z,94.4198
2019-05-03T07:41:51.333Z,94.0673
2019-05-03T07:42:55.520Z,93.8232
2019-05-03T07:43:59.320Z,93.6233
2019-05-03T07:45:04.974Z,94.0398
2019-05-03T07:46:08.369Z,93.4127
2019-05-03T07:47:11.297Z,93.4722
2019-05-03T07:48:15.042Z,93.5714
2019-05-03T07:49:18.322Z,93.9849
2019-05-03T07:50:21.291Z,93.4661
2019-05-03T07:51:24.880Z,93.4859
2019-05-03T07:52:28.377Z,92.8634
2019-05-03T07:53:31.289Z,93.6049
2019-05-03T07:54:34.857Z,93.4722
2019-05-03T07:55:38.301Z,92.8527
2019-05-03T07:56:41.368Z,92.9168
2019-05-03T07:57:45.308Z,93.1380
2019-05-03T07:58:59.290Z,93.1456
2019-05-03T07:59:56.292Z,93.8277
2019-05-03T08:01:06.178Z,93.4356
2019-05-03T08:02:07.361Z,93.6049
2019-05-03T08:03:10.346Z,92.9122
2019-05-03T08:04:15.272Z,92.8405
2019-05-03T08:05:18.329Z,92.7764
2019-05-03T08:06:21.296Z,93.3059
2019-05-03T08:07:25.778Z,93.2097
2019-05-03T08:08:29.330Z,93.7499
2019-05-03T08:09:32.315Z,94.0078
2019-05-03T08:10:34.563Z,94.1665
2019-05-03T08:11:37.334Z,93.1975
2019-05-03T08:12:40.357Z,92.9824
2019-05-03T08:13:44.643Z,93.6599
2019-05-03T08:14:48.324Z,94.0932
2019-05-03T08:15:51.287Z,93.6812
2019-05-03T08:16:54.769Z,94.2824
2019-05-03T08:17:58.338Z,93.3013
2019-05-03T08:19:01.319Z,93.6095
2019-05-03T08:20:05.272Z,93.4081
2019-05-03T08:21:08.327Z,93.2967
2019-05-03T08:22:11.284Z,93.9010
2019-05-03T08:23:26.409Z,93.5897
2019-05-03T08:24:22.331Z,93.8705
2019-05-03T08:25:25.295Z,94.0978
2019-05-03T08:26:28.305Z,94.0520
2019-05-03T08:27:31.363Z,94.0444
2019-05-03T08:28:34.681Z,93.8018
2019-05-03T08:29:38.341Z,94.0902
2019-05-03T08:30:41.311Z,94.2443
2019-05-03T08:31:45.438Z,94.5052
2019-05-03T08:32:48.312Z,94.2092
2019-05-03T08:33:51.347Z,94.2779
2019-05-03T08:34:55.603Z,94.3725
2019-05-03T08:35:59.300Z,94.6197
2019-05-03T08:37:02.305Z,94.7356
2019-05-03T08:38:05.288Z,94.5068
2019-05-03T08:39:08.358Z,94.6197
2019-05-03T08:40:11.329Z,94.6242
2019-05-03T08:41:14.531Z,94.9142
2019-05-03T08:42:17.294Z,94.8302
2019-05-03T08:43:20.320Z,94.6075
2019-05-03T08:44:25.039Z,94.3542
2019-05-03T08:45:28.332Z,94.7433
2019-05-03T08:46:31.306Z,94.7982
2019-05-03T08:47:34.540Z,94.3236
2019-05-03T08:48:37.271Z,94.0627
2019-05-03T08:49:39.343Z,94.1131
2019-05-03T08:50:42.325Z,93.5363
2019-05-03T08:51:45.338Z,94.1665
2019-05-03T08:52:48.307Z,94.1405
2019-05-03T08:53:51.310Z,93.9208
2019-05-03T08:54:55.020Z,93.3562
2019-05-03T08:55:58.295Z,93.5821
2019-05-03T08:57:01.356Z,93.8140
2019-05-03T08:58:05.207Z,93.6080
2019-05-03T08:59:08.327Z,93.6309
2019-05-03T09:00:11.312Z,93.3486
2019-05-03T09:01:14.834Z,93.1869
2019-05-03T09:02:18.732Z,93.1502
2019-05-03T09:03:22.368Z,93.2006
2019-05-03T09:04:36.168Z,92.3354
2019-05-03T09:05:35.809Z,92.9412
2019-05-03T09:06:39.330Z,93.0648
2019-05-03T09:07:44.626Z,92.7581
2019-05-03T09:08:47.361Z,92.5872
2019-05-03T09:09:50.322Z,92.6574
2019-05-03T09:10:54.556Z,92.6894
2019-05-03T09:11:58.321Z,92.2637
2019-05-03T09:13:03.522Z,92.0104
2019-05-03T09:14:09.293Z,91.0094
2019-05-03T09:15:12.339Z,90.3639
2019-05-03T09:16:15.340Z,90.2357
2019-05-03T09:17:19.309Z,90.1167
2019-05-03T09:18:22.316Z,88.6610
2019-05-03T09:19:26.273Z,88.6061
2019-05-03T09:20:32.279Z,90.0023
2019-05-03T09:21:36.328Z,89.4240
2019-05-03T09:22:39.329Z,89.8085
2019-05-03T09:23:42.305Z,91.2474
2019-05-03T09:24:46.316Z,90.1610
2019-05-03T09:25:49.325Z,90.5135
2019-05-03T09:26:55.412Z,89.3568
2019-05-03T09:27:59.329Z,89.9641
2019-05-03T09:29:05.375Z,90.1060
2019-05-03T09:30:09.294Z,90.0481
2019-05-03T09:31:12.302Z,89.5262
2019-05-03T09:32:16.340Z,89.2744
2019-05-03T09:33:19.314Z,89.0486
2019-05-03T09:34:25.538Z,89.5216
2019-05-03T09:35:33.050Z,88.0003
2019-05-03T09:36:37.315Z,88.0690
2019-05-03T09:37:40.329Z,87.4235
2019-05-03T09:38:45.545Z,87.8370
2019-05-03T09:39:49.272Z,87.2099
2019-05-03T09:40:54.445Z,86.1463
2019-05-03T09:41:58.311Z,86.4225
2019-05-03T09:43:01.336Z,86.7094
2019-05-03T09:44:05.336Z,87.8492
2019-05-03T09:45:08.327Z,89.1554
2019-05-03T09:46:11.320Z,89.0669
2019-05-03T09:47:15.298Z,88.4169
2019-05-03T09:48:18.371Z,87.5883
2019-05-03T09:49:22.299Z,88.1529
2019-05-03T09:50:25.338Z,88.1346
2019-05-03T09:51:29.311Z,88.1788
2019-05-03T09:52:32.290Z,86.7109
2019-05-03T09:53:35.358Z,86.9718
2019-05-03T09:54:39.325Z,86.1204
2019-05-03T09:55:42.387Z,85.4154
2019-05-03T09:56:55.270Z,85.3468
2019-05-03T09:57:55.543Z,84.3656
2019-05-03T09:58:59.357Z,82.4308
2019-05-03T10:00:04.762Z,83.3646
2019-05-03T10:01:08.558Z,84.1596
2019-05-03T10:02:12.309Z,83.8300
2019-05-03T10:03:15.308Z,83.9597
2019-05-03T10:04:19.322Z,85.1713
2019-05-03T10:05:22.398Z,85.4383
2019-05-03T10:06:26.311Z,85.6382
2019-05-03T10:07:29.318Z,85.4978
2019-05-03T10:08:32.303Z,83.9216
2019-05-03T10:09:36.361Z,83.7888
2019-05-03T10:10:39.296Z,84.7608
2019-05-03T10:11:45.644Z,84.4526
2019-05-03T10:12:49.291Z,84.3076
2019-05-03T10:13:56.322Z,85.1301
2019-05-03T10:14:59.297Z,84.8142
2019-05-03T10:16:02.286Z,84.0879
2019-05-03T10:17:06.343Z,84.2557
2019-05-03T10:18:11.110Z,83.9719
2019-05-03T10:19:16.217Z,84.3748
2019-05-03T10:20:19.348Z,83.5965
2019-05-03T10:21:25.704Z,83.3173
2019-05-03T10:22:29.308Z,84.0421
2019-05-03T10:23:32.320Z,83.3463
2019-05-03T10:24:36.297Z,81.5549
2019-05-03T10:25:40.386Z,82.2141
2019-05-03T10:26:45.580Z,82.6856
2019-05-03T10:27:49.300Z,82.7924
2019-05-03T10:28:55.045Z,82.5544
2019-05-03T10:30:10.619Z,82.3987
2019-05-03T10:31:07.907Z,81.9181
2019-05-03T10:32:12.331Z,81.3687
2019-05-03T10:33:15.575Z,82.0447
2019-05-03T10:34:18.314Z,81.7700
2019-05-03T10:35:21.357Z,82.8016
2019-05-03T10:36:25.323Z,82.7924
2019-05-03T10:37:28.330Z,82.7726
2019-05-03T10:38:31.295Z,82.4262
2019-05-03T10:39:36.223Z,81.4771
2019-05-03T10:40:40.320Z,81.2085
2019-05-03T10:41:45.357Z,81.6434
2019-05-03T10:42:49.343Z,81.1673
2019-05-03T10:43:55.472Z,80.8133
2019-05-03T10:44:59.326Z,80.7721
2019-05-03T10:46:02.311Z,80.9888
2019-05-03T10:47:06.365Z,81.3580
2019-05-03T10:48:09.287Z,81.0788
2019-05-03T10:49:15.166Z,80.4395
2019-05-03T10:50:18.318Z,81.5366
2019-05-03T10:51:22.297Z,81.9959
2019-05-03T10:52:25.822Z,81.7212
2019-05-03T10:53:29.295Z,81.8479
2019-05-03T10:54:35.583Z,82.0172
2019-05-03T10:55:39.312Z,82.3941
2019-05-03T10:56:45.254Z,82.5086
2019-05-03T10:57:48.339Z,82.7237
2019-05-03T10:58:54.774Z,83.0289
2019-05-03T10:59:58.305Z,83.5050
2019-05-03T11:01:01.330Z,84.2161
2019-05-03T11:02:05.295Z,84.4526
2019-05-03T11:03:08.322Z,85.2460
2019-05-03T11:04:12.330Z,87.3060
2019-05-03T11:05:15.331Z,88.2857
2019-05-03T11:06:19.309Z,90.6615
2019-05-03T11:07:22.289Z,90.5821
2019-05-03T11:08:25.346Z,91.4717
2019-05-03T11:09:29.375Z,92.5383
2019-05-03T11:10:31.348Z,92.3400
2019-05-03T11:11:35.419Z,92.8023
2019-05-03T11:12:38.296Z,92.1675
2019-05-03T11:13:42.337Z,92.7611
2019-05-03T11:14:45.636Z,92.4056
2019-05-03T11:15:49.304Z,90.7835
2019-05-03T11:16:55.135Z,91.9295
2019-05-03T11:17:58.320Z,91.6075
2019-05-03T11:19:02.330Z,92.3873
2019-05-03T11:20:05.376Z,91.2734
2019-05-03T11:21:09.328Z,91.1742
2019-05-03T11:22:14.459Z,91.6365
2019-05-03T11:23:18.292Z,90.7057
2019-05-03T11:24:25.069Z,90.0343
2019-05-03T11:25:30.309Z,89.0761
2019-05-03T11:26:34.954Z,88.1346
2019-05-03T11:27:38.350Z,86.5629
2019-05-03T11:28:42.301Z,87.0359
2019-05-03T11:29:45.387Z,86.3951
2019-05-03T11:30:56.380Z,86.7231
2019-05-03T11:31:56.341Z,85.6886
2019-05-03T11:32:59.298Z,86.2470
2019-05-03T11:34:03.327Z,87.3045
2019-05-03T11:35:06.330Z,86.2379
2019-05-03T11:36:10.360Z,87.1000
2019-05-03T11:37:14.552Z,85.2186
2019-05-03T11:38:18.385Z,85.5390
2019-05-03T11:39:22.316Z,86.5599
2019-05-03T11:40:25.310Z,87.1824
2019-05-03T11:41:32.640Z,86.8193
2019-05-03T11:42:36.310Z,86.8116
2019-05-03T11:43:40.332Z,87.0848
2019-05-03T11:44:44.629Z,86.3523
2019-05-03T11:45:49.406Z,88.8243
2019-05-03T11:46:55.093Z,88.5725
2019-05-03T11:47:58.297Z,88.5786
2019-05-03T11:49:02.295Z,88.0613
2019-05-03T11:50:05.303Z,89.3462
2019-05-03T11:51:09.316Z,89.3462
2019-05-03T11:52:12.299Z,89.4423
2019-05-03T11:53:15.316Z,87.7684
2019-05-03T11:54:21.309Z,87.9454
2019-05-03T11:55:26.797Z,89.3553
2019-05-03T11:56:29.307Z,88.2857
2019-05-03T11:57:32.292Z,87.5334
2019-05-03T11:58:36.299Z,88.3162
2019-05-03T11:59:39.319Z,86.3844
2019-05-03T12:00:42.344Z,86.1799
2019-05-03T12:01:45.329Z,87.5624
2019-05-03T12:02:48.339Z,85.9953
2019-05-03T12:03:52.268Z,86.0548
2019-05-03T12:04:55.406Z,85.9739
2019-05-03T12:05:58.353Z,85.5009
2019-05-03T12:07:01.331Z,85.7984
2019-05-03T12:08:05.416Z,86.1067
2019-05-03T12:09:09.290Z,86.5965
2019-05-03T12:10:28.301Z,86.7048
2019-05-03T12:11:20.348Z,85.9083
2019-05-03T12:12:24.504Z,85.1896
2019-05-03T12:13:28.306Z,85.6519
2019-05-03T12:14:31.330Z,86.5217
2019-05-03T12:15:35.234Z,84.6220
2019-05-03T12:17:12.221Z,83.4730
2019-05-03T12:17:53.956Z,82.6215
2019-05-03T12:18:55.807Z,82.2202
2019-05-03T12:20:00.762Z,83.9628
2019-05-03T12:21:08.266Z,82.7680
2019-05-03T12:22:14.242Z,82.8244
2019-05-03T12:23:20.671Z,84.7730
2019-05-03T12:24:26.727Z,82.4247
2019-05-03T12:25:30.932Z,78.7671
2019-05-03T12:26:41.773Z,81.0559
2019-05-03T12:27:43.990Z,81.8753
2019-05-03T12:28:48.321Z,81.0071
2019-05-03T12:29:52.485Z,81.9272
2019-05-03T12:30:56.343Z,81.2314
2019-05-03T12:32:00.316Z,81.0788
2019-05-03T12:33:05.697Z,80.2411
2019-05-03T12:34:09.277Z,79.7208
2019-05-03T12:35:12.353Z,80.4883
2019-05-03T12:36:16.352Z,80.4425
2019-05-03T12:37:19.307Z,78.4482
2019-05-03T12:38:22.345Z,77.5463
2019-05-03T12:39:30.435Z,75.6176
2019-05-03T12:40:34.956Z,75.6359
2019-05-03T12:41:38.296Z,73.9452
2019-05-03T12:42:41.327Z,74.8653
2019-05-03T12:43:45.340Z,75.9396
2019-05-03T12:44:47.350Z,74.1390
2019-05-03T12:45:50.312Z,75.1293
2019-05-03T12:46:54.282Z,76.3836
2019-05-03T12:47:57.335Z,77.5326
2019-05-03T12:49:01.416Z,78.6068
2019-05-03T12:50:05.338Z,77.8607
2019-05-03T12:51:09.632Z,77.3083